createdAt,value
2023-01-25T00:02:00.948Z,36.30
2023-01-25T00:04:27.345Z,36.12
2023-01-25T04:09:00.902Z,35.44
2023-01-25T04:11:27.317Z,35.26
2023-01-25T04:13:53.692Z,35.27
2023-01-25T04:16:20.169Z,35.36
2023-01-25T04:18:46.599Z,35.29
2023-01-25T04:21:12.988Z,35.21
2023-01-25T04:23:39.377Z,35.25
2023-01-25T04:26:05.751Z,35.03
2023-01-25T04:28:32.139Z,35.18
2023-01-25T04:30:58.534Z,35.26
2023-01-25T04:33:24.915Z,35.10
2023-01-25T04:35:51.312Z,35.29
2023-01-25T04:38:17.737Z,35.19
2023-01-25T04:40:44.142Z,35.19
2023-01-25T04:43:10.525Z,35.17
2023-01-25T04:45:36.918Z,35.18
2023-01-25T04:48:03.342Z,35.21
2023-01-25T04:50:29.722Z,35.25
2023-01-25T04:52:56.098Z,35.29
2023-01-25T04:55:22.480Z,35.26
2023-01-25T04:57:48.870Z,35.32
2023-01-25T05:00:15.283Z,34.97
2023-01-25T05:02:41.760Z,35.52
2023-01-25T05:05:08.426Z,35.19
2023-01-25T05:07:35.066Z,35.11
2023-01-25T05:10:01.545Z,35.09
2023-01-25T05:12:27.986Z,35.15
2023-01-25T05:14:54.357Z,35.08
2023-01-25T05:17:20.765Z,35.00
2023-01-25T05:19:47.163Z,35.03
2023-01-25T05:22:13.541Z,35.29
2023-01-25T05:24:39.937Z,35.11
2023-01-25T05:27:06.326Z,35.14
2023-01-25T05:29:32.716Z,35.06
2023-01-25T05:31:59.211Z,35.09
2023-01-25T05:34:25.590Z,34.89
2023-01-25T05:36:51.975Z,34.90
2023-01-25T05:39:18.361Z,34.93
2023-01-25T05:41:44.767Z,35.12
2023-01-25T05:44:11.209Z,35.13
2023-01-25T05:46:37.617Z,34.88
2023-01-25T05:49:04.075Z,34.91
2023-01-25T05:51:30.480Z,35.14
2023-01-25T05:53:56.873Z,35.01
2023-01-25T05:56:23.302Z,34.84
2023-01-25T05:58:49.708Z,34.93
2023-01-25T06:01:16.119Z,34.96
2023-01-25T06:03:42.554Z,35.13
2023-01-25T06:06:08.968Z,34.92
2023-01-25T06:08:35.356Z,34.75
2023-01-25T06:11:01.749Z,34.93
2023-01-25T06:13:28.215Z,34.77
2023-01-25T06:15:54.633Z,34.99
2023-01-25T06:18:21.036Z,35.01
2023-01-25T06:20:47.410Z,35.26
2023-01-25T06:23:13.803Z,35.26
2023-01-25T06:25:40.202Z,35.27
2023-01-25T06:28:06.604Z,35.16
2023-01-25T06:30:33.042Z,35.32
2023-01-25T06:32:59.416Z,35.26
2023-01-25T06:35:25.791Z,35.15
2023-01-25T06:37:52.178Z,34.91
2023-01-25T06:40:18.558Z,34.82
2023-01-25T06:42:44.952Z,35.00
2023-01-25T06:45:11.771Z,35.04
2023-01-25T06:47:38.406Z,34.93
2023-01-25T06:50:04.772Z,35.11
2023-01-25T06:52:31.153Z,34.94
2023-01-25T06:54:57.540Z,34.93
2023-01-25T06:57:23.932Z,34.89
2023-01-25T06:59:50.320Z,34.85
2023-01-25T07:02:16.719Z,34.53
2023-01-25T07:04:43.136Z,34.10
2023-01-25T07:07:09.531Z,34.06
2023-01-25T07:09:35.937Z,34.17
2023-01-25T07:12:02.375Z,34.28
2023-01-25T07:14:28.783Z,34.09
2023-01-25T07:16:55.174Z,33.79
2023-01-25T07:19:21.603Z,34.03
2023-01-25T07:21:48.021Z,34.19
2023-01-25T07:24:14.558Z,33.97
2023-01-25T07:26:41.027Z,33.99
2023-01-25T07:29:07.566Z,34.30
2023-01-25T07:31:34.256Z,33.99
2023-01-25T07:34:00.655Z,34.01
2023-01-25T07:36:27.047Z,34.29
2023-01-25T07:38:53.444Z,34.05
2023-01-25T07:41:19.858Z,34.34
2023-01-25T07:43:46.258Z,34.20
2023-01-25T07:46:12.640Z,33.93
2023-01-25T07:48:39.026Z,33.91
2023-01-25T07:51:05.434Z,33.87
2023-01-25T07:53:31.823Z,33.97
2023-01-25T07:55:58.196Z,33.79
2023-01-25T07:58:24.567Z,33.90
2023-01-25T08:00:50.947Z,33.85
2023-01-25T08:03:17.339Z,33.97
2023-01-25T08:05:43.770Z,33.95
2023-01-25T08:08:10.150Z,33.89
2023-01-25T08:10:36.534Z,33.85
2023-01-25T08:13:02.905Z,33.93
2023-01-25T08:15:29.281Z,33.93
2023-01-25T08:17:55.650Z,33.90
2023-01-25T08:20:22.097Z,33.83
2023-01-25T08:22:48.481Z,33.80
2023-01-25T08:25:14.858Z,33.82
2023-01-25T08:27:41.232Z,33.89
2023-01-25T08:30:07.644Z,33.74
2023-01-25T08:32:34.031Z,33.71
2023-01-25T08:35:00.532Z,33.75
2023-01-25T08:37:26.920Z,33.87
2023-01-25T08:39:53.373Z,33.78
2023-01-25T08:42:21.004Z,33.67
2023-01-25T08:44:47.967Z,33.67
2023-01-25T08:47:14.348Z,33.83
2023-01-25T08:49:40.740Z,33.87
2023-01-25T08:52:07.141Z,33.55
2023-01-25T08:54:33.525Z,33.83
2023-01-25T08:56:59.909Z,33.53
2023-01-25T08:59:26.288Z,33.50
2023-01-25T09:01:52.704Z,33.43
2023-01-25T09:04:19.084Z,33.69
2023-01-25T09:06:45.479Z,33.64
2023-01-25T09:09:11.878Z,33.48
2023-01-25T09:11:38.323Z,33.41
2023-01-25T09:14:04.759Z,33.34
2023-01-25T09:16:31.159Z,33.44
2023-01-25T09:18:57.551Z,33.38
2023-01-25T09:21:23.937Z,33.28
2023-01-25T09:23:51.151Z,33.63
2023-01-25T09:26:23.981Z,33.34
2023-01-25T09:28:50.379Z,33.47
2023-01-25T09:31:22.317Z,33.39
2023-01-25T09:33:49.330Z,33.33
2023-01-25T09:36:15.749Z,33.26
2023-01-25T09:38:42.161Z,33.63
2023-01-25T09:41:08.559Z,33.53
2023-01-25T09:43:34.964Z,33.50
2023-01-25T09:46:01.383Z,33.40
2023-01-25T09:48:27.829Z,33.34
2023-01-25T09:50:54.200Z,33.45
2023-01-25T09:53:20.587Z,33.36
2023-01-25T09:55:46.969Z,33.38
2023-01-25T09:58:13.340Z,33.38
2023-01-25T10:00:39.749Z,33.22
2023-01-25T10:03:06.153Z,33.36
2023-01-25T10:05:32.571Z,33.24
2023-01-25T10:07:58.955Z,33.22
2023-01-25T10:10:25.355Z,33.21
2023-01-25T10:12:51.749Z,33.20
2023-01-25T10:15:18.145Z,33.26
2023-01-25T10:17:44.551Z,33.35
2023-01-25T10:20:11.205Z,33.17
2023-01-25T10:22:37.866Z,33.21
2023-01-25T10:25:04.374Z,33.17
2023-01-25T10:27:30.749Z,33.27
2023-01-25T10:29:57.121Z,33.25
2023-01-25T10:32:23.521Z,33.29
2023-01-25T10:34:56.268Z,33.37
2023-01-25T10:37:23.259Z,33.24
2023-01-25T10:39:49.644Z,32.94
2023-01-25T10:42:16.048Z,33.01
2023-01-25T10:44:42.429Z,33.32
2023-01-25T10:47:08.805Z,33.12
2023-01-25T10:49:35.231Z,33.13
2023-01-25T10:52:01.612Z,33.21
2023-01-25T10:54:30.203Z,33.21
2023-01-25T10:56:56.681Z,33.22
2023-01-25T10:59:23.064Z,33.31
2023-01-25T11:01:49.525Z,33.11
2023-01-25T11:04:15.925Z,32.73
2023-01-25T11:06:42.312Z,32.78
2023-01-25T11:09:08.719Z,32.54
2023-01-25T11:11:35.108Z,32.73
2023-01-25T11:14:01.569Z,32.62
2023-01-25T11:16:28.214Z,32.84
2023-01-25T11:18:54.593Z,32.72
2023-01-25T11:21:20.991Z,32.61
2023-01-25T11:23:49.064Z,32.70
2023-01-25T11:26:15.707Z,32.74
2023-01-25T11:28:42.114Z,32.75
2023-01-25T11:31:08.660Z,32.79
2023-01-25T11:33:35.114Z,32.78
2023-01-25T11:36:01.508Z,32.90
2023-01-25T11:38:27.960Z,32.89
2023-01-25T11:40:54.353Z,32.94
2023-01-25T11:43:20.748Z,32.86
2023-01-25T11:45:47.153Z,32.97
2023-01-25T11:48:13.553Z,32.85
2023-01-25T11:50:39.957Z,32.82
2023-01-25T11:53:06.348Z,32.88
2023-01-25T11:55:32.746Z,32.93
2023-01-25T11:57:59.133Z,32.96
2023-01-25T12:00:25.541Z,33.13
2023-01-25T12:02:51.958Z,33.15
2023-01-25T12:05:21.780Z,32.98
2023-01-25T12:07:48.623Z,33.00
2023-01-25T12:10:15.047Z,33.14
2023-01-25T12:12:41.417Z,32.86
2023-01-25T12:15:07.820Z,33.17
2023-01-25T12:17:34.223Z,33.06
2023-01-25T12:20:00.616Z,33.01
2023-01-25T12:22:27.004Z,33.00
2023-01-25T12:24:53.408Z,33.16
2023-01-25T12:27:19.823Z,32.99
2023-01-25T12:29:46.400Z,33.06
2023-01-25T12:32:12.816Z,33.09
2023-01-25T12:34:39.218Z,33.18
2023-01-25T12:37:05.606Z,32.94
2023-01-25T12:39:31.997Z,33.18
2023-01-25T12:41:58.422Z,32.91
2023-01-25T12:44:24.869Z,33.05
2023-01-25T12:46:51.298Z,33.08
2023-01-25T12:49:17.717Z,33.28
2023-01-25T12:51:44.110Z,33.16
2023-01-25T12:54:10.539Z,33.32
2023-01-25T12:56:36.929Z,33.33
2023-01-25T12:59:03.340Z,33.52
2023-01-25T13:01:29.722Z,33.16
2023-01-25T13:03:56.129Z,33.09
2023-01-25T13:06:22.540Z,33.15
2023-01-25T13:08:49.207Z,33.00
2023-01-25T13:11:15.633Z,33.10
2023-01-25T13:13:42.051Z,33.08
2023-01-25T13:16:08.496Z,32.93
2023-01-25T13:18:34.892Z,33.03
2023-01-25T13:21:01.274Z,33.11
2023-01-25T13:23:27.688Z,33.12
2023-01-25T13:25:54.094Z,32.97
2023-01-25T13:28:21.273Z,33.20
2023-01-25T13:30:47.745Z,33.17
2023-01-25T13:33:14.161Z,33.03
2023-01-25T13:35:40.576Z,33.34
2023-01-25T13:38:06.984Z,33.27
2023-01-25T13:40:33.405Z,33.32
2023-01-25T13:42:59.822Z,33.05
2023-01-25T13:45:26.239Z,33.36
2023-01-25T13:47:52.635Z,33.29
2023-01-25T13:50:19.028Z,33.13
2023-01-25T13:52:45.428Z,33.25
2023-01-25T13:55:11.807Z,33.56
2023-01-25T13:57:38.182Z,33.28
2023-01-25T14:00:10.625Z,33.44
2023-01-25T14:02:37.326Z,33.35
2023-01-25T14:05:03.714Z,33.26
2023-01-25T14:07:34.590Z,33.19
2023-01-25T14:10:01.046Z,33.46
2023-01-25T14:12:27.438Z,33.58
2023-01-25T14:14:53.839Z,33.42
2023-01-25T14:17:20.238Z,33.46
2023-01-25T14:19:46.614Z,33.44
2023-01-25T14:22:13.027Z,33.61
2023-01-25T14:24:39.424Z,33.59
2023-01-25T14:27:05.843Z,33.42
2023-01-25T14:29:33.456Z,33.61
2023-01-25T14:31:59.991Z,33.68
2023-01-25T14:34:26.393Z,33.64
2023-01-25T14:36:52.786Z,33.78
2023-01-25T14:39:19.187Z,34.09
2023-01-25T14:41:51.751Z,34.23
2023-01-25T14:44:26.384Z,34.12
2023-01-25T14:46:52.787Z,34.39
2023-01-25T14:49:19.165Z,34.94
2023-01-25T14:51:45.545Z,35.08
2023-01-25T14:54:11.942Z,34.99
2023-01-25T14:56:38.320Z,35.08
2023-01-25T14:59:04.717Z,35.20
2023-01-25T15:01:31.147Z,34.79
2023-01-25T15:03:57.561Z,34.42
2023-01-25T15:06:23.958Z,34.80
2023-01-25T15:08:50.326Z,34.83
2023-01-25T15:11:16.700Z,35.03
2023-01-25T15:13:43.159Z,34.74
2023-01-25T15:16:09.610Z,34.85
2023-01-25T15:18:36.020Z,35.03
2023-01-25T15:21:02.412Z,35.09
2023-01-25T15:23:28.797Z,35.19
2023-01-25T15:25:55.173Z,34.99
2023-01-25T15:28:21.560Z,35.09
2023-01-25T15:30:48.048Z,35.40
2023-01-25T15:33:14.469Z,35.30
2023-01-25T15:35:40.878Z,35.38
2023-01-25T15:38:07.252Z,35.37
2023-01-25T15:40:33.648Z,35.24
2023-01-25T15:43:00.144Z,35.33
2023-01-25T15:45:26.533Z,35.54
2023-01-25T15:47:52.914Z,35.51
2023-01-25T15:50:19.308Z,35.38
2023-01-25T15:52:45.704Z,35.27
2023-01-25T15:55:12.092Z,34.87
2023-01-25T15:57:38.472Z,34.84
2023-01-25T16:00:04.871Z,34.90
2023-01-25T16:02:31.288Z,34.87
2023-01-25T16:04:57.718Z,34.95
2023-01-25T16:07:24.107Z,34.83
2023-01-25T16:09:50.510Z,34.83
2023-01-25T16:12:16.908Z,34.96
2023-01-25T16:14:43.311Z,34.96
2023-01-25T16:17:09.691Z,34.78
2023-01-25T16:19:36.077Z,34.72
2023-01-25T16:22:02.475Z,34.83
2023-01-25T16:24:28.926Z,34.79
2023-01-25T16:26:55.348Z,34.86
2023-01-25T16:29:21.773Z,34.74
2023-01-25T16:31:48.228Z,34.85
2023-01-25T16:34:14.692Z,34.86
2023-01-25T16:36:41.098Z,34.70
2023-01-25T16:39:07.511Z,34.70
2023-01-25T16:41:33.909Z,34.61
2023-01-25T16:44:00.324Z,34.61
2023-01-25T16:46:26.745Z,34.74
2023-01-25T16:48:53.227Z,34.50
2023-01-25T16:51:19.618Z,34.56
2023-01-25T16:53:46.010Z,34.64
2023-01-25T16:56:12.445Z,34.57
2023-01-25T16:58:38.863Z,34.60
2023-01-25T17:01:05.284Z,34.39
2023-01-25T17:03:31.703Z,34.71
2023-01-25T17:05:58.078Z,34.74
2023-01-25T17:08:24.516Z,34.47
2023-01-25T17:10:50.923Z,34.41
2023-01-25T17:13:17.311Z,34.58
2023-01-25T17:15:43.727Z,34.28
2023-01-25T17:18:10.138Z,34.33
2023-01-25T17:20:36.535Z,34.20
2023-01-25T17:23:02.961Z,34.31
2023-01-25T17:25:29.349Z,34.25
2023-01-25T17:27:55.767Z,34.38
2023-01-25T17:30:22.266Z,34.21
2023-01-25T17:32:48.720Z,34.28
2023-01-25T17:35:15.113Z,34.33
2023-01-25T17:37:41.504Z,34.23
2023-01-25T17:40:08.296Z,34.09
2023-01-25T17:42:34.977Z,34.11
2023-01-25T17:45:01.375Z,34.10
2023-01-25T17:47:27.770Z,34.17
2023-01-25T17:49:54.133Z,34.12
2023-01-25T17:52:20.519Z,34.13
2023-01-25T17:54:46.915Z,34.23
2023-01-25T17:57:13.327Z,34.12
2023-01-25T17:59:39.713Z,34.14
2023-01-25T18:02:06.104Z,34.12
2023-01-25T18:04:32.520Z,34.28
2023-01-25T18:06:58.886Z,34.16
2023-01-25T18:09:25.281Z,34.16
2023-01-25T18:11:51.675Z,34.38
2023-01-25T18:14:18.077Z,34.11
2023-01-25T18:16:44.488Z,33.95
2023-01-25T18:19:10.931Z,34.07
2023-01-25T18:21:37.391Z,34.03
2023-01-25T18:24:03.801Z,34.03
2023-01-25T18:26:30.229Z,34.15
2023-01-25T18:28:56.630Z,34.13
2023-01-25T18:31:23.128Z,34.11
2023-01-25T18:33:49.594Z,34.19
2023-01-25T18:36:16.000Z,34.17
2023-01-25T18:38:42.433Z,34.11
2023-01-25T18:41:08.837Z,34.05
2023-01-25T18:43:35.235Z,33.98
2023-01-25T18:46:01.658Z,34.00
2023-01-25T18:48:28.071Z,34.07
2023-01-25T18:50:54.554Z,34.01
2023-01-25T18:53:20.952Z,34.12
2023-01-25T18:55:47.444Z,34.26
2023-01-25T18:58:13.830Z,34.08
2023-01-25T19:00:40.226Z,34.07
2023-01-25T19:03:06.717Z,33.95
2023-01-25T19:05:33.227Z,34.13
2023-01-25T19:07:59.635Z,33.82
2023-01-25T19:10:26.023Z,33.96
2023-01-25T19:12:52.411Z,34.14
2023-01-25T19:15:18.789Z,33.98
2023-01-25T19:17:45.181Z,34.02
2023-01-25T19:20:11.567Z,33.97
2023-01-25T19:22:37.942Z,34.00
2023-01-25T19:25:04.346Z,33.87
2023-01-25T19:27:30.740Z,34.10
2023-01-25T19:29:57.139Z,34.02
2023-01-25T19:32:23.529Z,33.85
2023-01-25T19:34:49.937Z,34.10
2023-01-25T19:37:16.347Z,34.18
2023-01-25T19:39:42.749Z,34.17
2023-01-25T19:42:09.164Z,33.99
2023-01-25T19:44:35.570Z,33.83
2023-01-25T19:47:01.987Z,34.03
2023-01-25T19:49:28.395Z,33.78
2023-01-25T19:51:54.786Z,33.55
2023-01-25T19:54:21.202Z,33.85
2023-01-25T19:56:47.622Z,33.83
2023-01-25T19:59:14.026Z,33.94
2023-01-25T20:01:40.419Z,33.89
2023-01-25T20:04:06.842Z,33.86
2023-01-25T20:06:33.245Z,33.83
2023-01-25T20:08:59.643Z,33.61
2023-01-25T20:11:26.085Z,33.68
2023-01-25T20:13:52.515Z,33.98
2023-01-25T20:16:18.980Z,34.20
2023-01-25T20:18:45.420Z,33.67
2023-01-25T20:21:11.793Z,33.72
2023-01-25T20:23:38.708Z,33.83
2023-01-25T20:26:05.111Z,33.77
2023-01-25T20:28:31.507Z,33.72
2023-01-25T20:30:57.990Z,33.65
2023-01-25T20:33:24.410Z,33.64
2023-01-25T20:35:50.796Z,33.81
2023-01-25T20:38:17.198Z,33.87
2023-01-25T20:40:43.626Z,33.84
2023-01-25T20:43:10.022Z,33.84
2023-01-25T20:45:36.436Z,33.75
2023-01-25T20:48:02.839Z,33.48
2023-01-25T20:50:29.244Z,33.69
2023-01-25T20:52:55.629Z,33.75
2023-01-25T20:55:22.039Z,33.71
2023-01-25T20:57:48.448Z,33.85
2023-01-25T21:00:14.834Z,33.81
2023-01-25T21:02:41.215Z,33.65
2023-01-25T21:05:07.657Z,33.66
2023-01-25T21:07:34.106Z,33.66
2023-01-25T21:10:00.523Z,33.69
2023-01-25T21:12:26.956Z,33.85
2023-01-25T21:14:53.370Z,33.66
2023-01-25T21:17:19.768Z,33.65
2023-01-25T21:19:46.162Z,33.67
2023-01-25T21:22:12.615Z,33.69
2023-01-25T21:24:39.066Z,33.57
2023-01-25T21:27:05.509Z,33.53
2023-01-25T21:29:31.922Z,33.76
2023-01-25T21:31:58.354Z,33.58
2023-01-25T21:34:24.771Z,33.67
2023-01-25T21:36:51.180Z,33.60
2023-01-25T21:39:17.574Z,33.76
2023-01-25T21:41:44.000Z,33.55
2023-01-25T21:44:10.402Z,33.80
2023-01-25T21:46:36.815Z,33.68
2023-01-25T21:49:03.199Z,33.51
2023-01-25T21:51:29.645Z,33.58
2023-01-25T21:53:56.054Z,33.59
2023-01-25T21:56:22.434Z,33.74
2023-01-25T21:58:48.837Z,33.54
2023-01-25T22:01:15.304Z,33.55
2023-01-25T22:03:41.729Z,33.58
2023-01-25T22:06:08.125Z,33.60
2023-01-25T22:08:34.556Z,33.96
2023-01-25T22:11:00.968Z,33.44
2023-01-25T22:13:27.370Z,33.47
2023-01-25T22:15:53.790Z,33.65
2023-01-25T22:18:20.191Z,33.58
2023-01-25T22:20:46.593Z,33.56
2023-01-25T22:23:13.007Z,33.62
2023-01-25T22:25:39.425Z,33.40
2023-01-25T22:28:05.820Z,33.43
2023-01-25T22:30:32.243Z,33.47
2023-01-25T22:32:58.640Z,33.58
2023-01-25T22:35:25.038Z,33.61
2023-01-25T22:37:51.443Z,33.54
2023-01-25T22:40:17.825Z,33.48
2023-01-25T22:42:44.221Z,33.80
2023-01-25T22:45:10.625Z,33.65
2023-01-25T22:47:37.022Z,33.53
2023-01-25T22:50:03.413Z,33.73
2023-01-25T22:52:29.790Z,33.60
2023-01-25T22:54:56.171Z,33.64
2023-01-25T22:57:22.569Z,33.58
2023-01-25T22:59:48.969Z,33.52
2023-01-25T23:02:15.357Z,33.47
2023-01-25T23:04:41.824Z,33.40
2023-01-25T23:07:08.247Z,33.40
2023-01-25T23:09:34.656Z,33.43
2023-01-25T23:12:01.047Z,33.42
2023-01-25T23:14:27.443Z,33.34
2023-01-25T23:16:53.850Z,33.29
2023-01-25T23:19:20.266Z,33.70
2023-01-25T23:21:46.686Z,33.58
2023-01-25T23:24:13.162Z,33.65
2023-01-25T23:26:39.591Z,33.87
2023-01-25T23:29:05.984Z,34.08
2023-01-25T23:31:32.474Z,34.01
2023-01-25T23:33:58.975Z,33.99
2023-01-25T23:36:25.378Z,34.04
2023-01-25T23:38:51.786Z,33.94
2023-01-25T23:41:18.174Z,34.02
2023-01-25T23:43:44.559Z,34.28
2023-01-25T23:46:10.960Z,34.41
2023-01-25T23:48:37.373Z,34.60
2023-01-25T23:51:03.769Z,34.62
2023-01-25T23:53:30.167Z,34.71
2023-01-25T23:55:56.558Z,34.96
2023-01-25T23:58:22.947Z,35.04
